Time;durP1;ratioP1;P1;durP2;ratioP2;P2;SDS_P1;SDS_P2;PMS_P1;PMS_P2;Temp;Humidity;BMP_temperature;BMP_pressure;BME280_temperature;BME280_humidity;BME280_pressure;Samples;Min_cycle;Max_cycle;Signal;HPM_P1;HPM_P2
2022/10/28 00:00:31;;;;;;;5.38;1.77;;;;;;;9.72;80.58;95873.81;5132903;27;20249;-73
2022/10/28 00:03:00;;;;;;;2.40;1.90;;;;;;;9.75;80.89;95867.81;5132825;27;20659;-73
2022/10/28 00:05:27;;;;;;;2.22;1.02;;;;;;;9.73;80.34;95883.53;5132262;27;20570;-74
2022/10/28 00:07:55;;;;;;;3.67;1.55;;;;;;;9.65;80.75;95878.78;5132792;27;20293;-73
2022/10/28 00:10:22;;;;;;;2.97;2.10;;;;;;;9.63;81.55;95876.38;5132891;27;20313;-74
2022/10/28 00:12:49;;;;;;;2.55;1.50;;;;;;;9.54;81.50;95877.31;5131932;27;20224;-73
2022/10/28 00:15:16;;;;;;;2.92;2.17;;;;;;;9.50;81.44;95876.28;5119041;27;20563;-74
2022/10/28 00:17:42;;;;;;;2.55;1.40;;;;;;;9.46;81.60;95875.22;5132208;27;20281;-73
2022/10/28 00:20:10;;;;;;;2.03;1.30;;;;;;;9.42;81.58;95868.81;5131641;27;20732;-73
2022/10/28 00:22:37;;;;;;;6.00;2.10;;;;;;;9.37;81.58;95876.97;5132424;27;20193;-73
2022/10/28 00:25:06;;;;;;;4.65;1.63;;;;;;;9.37;82.12;95871.56;5118479;27;20208;-72
2022/10/28 00:27:33;;;;;;;6.28;3.28;;;;;;;9.32;82.33;95869.72;5132200;27;20575;-72
2022/10/28 00:29:59;;;;;;;6.35;3.67;;;;;;;9.26;82.74;95871.69;5131983;27;20264;-72
2022/10/28 00:32:28;;;;;;;4.35;3.10;;;;;;;9.19;83.13;95868.53;5132486;27;20220;-74
2022/10/28 00:34:55;;;;;;;4.72;2.83;;;;;;;9.16;83.46;95877.19;5131979;27;20213;-73
2022/10/28 00:37:22;;;;;;;2.70;1.65;;;;;;;9.12;83.46;95876.19;5132605;27;20200;-73
2022/10/28 00:39:49;;;;;;;1.85;1.40;;;;;;;9.14;84.04;95873.19;5131624;27;20209;-73
2022/10/28 00:42:21;;;;;;;2.45;1.85;;;;;;;9.18;83.97;95869.63;5132208;27;20229;-73
2022/10/28 00:46:34;;;;;;;1.92;1.30;;;;;;;9.22;83.51;95862.53;5129493;27;1349895;-72
2022/10/28 00:49:06;;;;;;;3.53;1.65;;;;;;;9.30;83.46;95871.09;5163810;27;20211;-72
2022/10/28 00:51:35;;;;;;;3.33;2.10;;;;;;;9.19;83.12;95859.59;5135349;27;20200;-72
2022/10/28 00:54:04;;;;;;;2.90;1.48;;;;;;;9.10;83.36;95867.56;5136898;27;20196;-72
2022/10/28 00:56:37;;;;;;;1.33;1.23;;;;;;;9.08;83.10;95861.63;5135114;27;20201;-72
2022/10/28 00:59:09;;;;;;;3.20;2.05;;;;;;;9.02;83.40;95865.47;5139424;27;20212;-73
2022/10/28 01:01:37;;;;;;;2.47;1.23;;;;;;;9.05;83.53;95875.69;5131869;27;20196;-72
2022/10/28 01:04:04;;;;;;;1.60;1.08;;;;;;;9.03;83.81;95860.88;5138258;27;20249;-74
2022/10/28 01:06:31;;;;;;;2.50;1.60;;;;;;;9.06;83.32;95871.91;5142208;27;20193;-73
2022/10/28 01:08:58;;;;;;;2.33;1.70;;;;;;;9.02;83.40;95870.88;5139672;27;20197;-72
2022/10/28 01:11:47;;;;;;;2.40;1.25;;;;;;;8.92;83.48;95868.28;5134246;27;20208;-72
2022/10/28 01:14:23;;;;;;;2.65;1.90;;;;;;;8.92;83.48;95870.97;5141760;27;20607;-72
2022/10/28 01:17:05;;;;;;;1.55;1.08;;;;;;;8.85;83.80;95865.13;5136199;27;20192;-72
2022/10/28 01:20:05;;;;;;;3.25;1.52;;;;;;;8.78;84.00;95870.03;5135326;27;20196;-73
2022/10/28 01:22:36;;;;;;;3.50;1.48;;;;;;;8.68;84.29;95865.56;5132331;27;20268;-72
2022/10/28 01:25:46;;;;;;;2.65;1.35;;;;;;;8.73;84.37;95864.72;5128206;28;20217;-72
2022/10/28 01:28:26;;;;;;;2.35;1.33;;;;;;;8.62;84.26;95868.56;5137633;27;20200;-73
2022/10/28 01:31:19;;;;;;;2.47;1.42;;;;;;;8.51;84.80;95871.38;5134978;27;20691;-74
2022/10/28 01:33:52;;;;;;;2.50;1.20;;;;;;;8.55;85.39;95864.31;5148945;27;20554;-74
2022/10/28 01:36:27;;;;;;;2.10;1.33;;;;;;;8.50;85.51;95869.75;5138719;27;20260;-74
2022/10/28 01:39:01;;;;;;;2.92;1.40;;;;;;;8.53;85.61;95865.69;5142174;27;20333;-74
2022/10/28 01:41:34;;;;;;;3.25;1.45;;;;;;;8.54;85.44;95876.22;5123240;28;20255;-73
2022/10/28 01:44:07;;;;;;;4.82;2.88;;;;;;;8.51;85.50;95871.38;5127814;28;20189;-73
2022/10/28 01:46:41;;;;;;;2.42;1.50;;;;;;;8.50;85.52;95875.16;5113444;28;20607;-75
2022/10/28 01:49:14;;;;;;;3.13;2.25;;;;;;;8.49;85.19;95867.34;5127046;28;20189;-73
2022/10/28 01:51:46;;;;;;;2.00;1.42;;;;;;;8.37;85.75;95873.13;5118101;28;20593;-74
2022/10/28 01:54:17;;;;;;;6.97;3.15;;;;;;;8.34;86.19;95873.66;5121169;28;20197;-74
2022/10/28 01:56:46;;;;;;;6.85;2.30;;;;;;;8.37;86.19;95881.22;5109655;28;20205;-74
2022/10/28 01:59:17;;;;;;;2.65;1.30;;;;;;;8.33;86.16;95885.59;5113097;28;20201;-73
2022/10/28 02:01:45;;;;;;;2.70;1.80;;;;;;;8.24;87.28;95878.31;5102142;28;20190;-73
2022/10/28 02:04:12;;;;;;;2.90;1.63;;;;;;;8.34;87.05;95881.78;5107053;28;20263;-73
2022/10/28 02:06:40;;;;;;;1.67;1.23;;;;;;;8.34;86.93;95881.78;5105602;28;20225;-73
2022/10/28 02:09:19;;;;;;;4.28;1.92;;;;;;;8.42;86.78;95878.47;5099998;28;20205;-73
2022/10/28 02:12:02;;;;;;;8.70;2.92;;;;;;;8.43;86.97;95879.28;5099181;28;20190;-73
2022/10/28 02:14:49;;;;;;;5.68;2.92;;;;;;;8.39;86.93;95886.34;5102735;28;20190;-73
2022/10/28 02:17:26;;;;;;;5.90;3.50;;;;;;;8.42;86.63;95877.69;5099242;28;20193;-73
2022/10/28 02:20:01;;;;;;;7.90;3.08;;;;;;;8.40;86.83;95880.66;5112286;28;20198;-73
2022/10/28 02:22:34;;;;;;;5.70;3.50;;;;;;;8.35;86.97;95872.59;5112721;28;20680;-73
2022/10/28 02:25:09;;;;;;;5.25;3.40;;;;;;;8.20;87.33;95880.75;5099930;28;20222;-73
2022/10/28 02:27:44;;;;;;;1.65;0.93;;;;;;;8.21;87.54;95882.38;5102250;28;20256;-73
2022/10/28 02:30:15;;;;;;;2.65;1.42;;;;;;;8.12;87.52;95879.50;5106709;28;20323;-73
2022/10/28 02:32:50;;;;;;;2.03;1.13;;;;;;;8.21;88.00;95883.19;5104949;28;20251;-73
2022/10/28 02:35:22;;;;;;;3.05;1.80;;;;;;;8.12;88.44;95884.09;5099304;28;20198;-73
2022/10/28 02:37:52;;;;;;;4.38;1.83;;;;;;;8.07;88.48;95886.81;5113239;28;20216;-73
2022/10/28 02:40:23;;;;;;;7.07;1.67;;;;;;;8.07;88.89;95886.81;5113201;28;20209;-73
2022/10/28 02:42:54;;;;;;;4.05;1.95;;;;;;;8.09;88.92;95893.53;5097148;28;20275;-73
2022/10/28 02:45:25;;;;;;;2.67;1.38;;;;;;;8.19;88.67;95895.38;5101690;28;20241;-73
2022/10/28 02:47:57;;;;;;;3.33;1.80;;;;;;;8.21;88.21;95894.00;5100657;28;20250;-73
2022/10/28 02:50:30;;;;;;;2.08;1.63;;;;;;;8.17;87.40;95892.16;5099801;28;20194;-73
2022/10/28 02:52:59;;;;;;;2.55;1.50;;;;;;;8.09;87.70;95890.03;5112279;28;20201;-73
2022/10/28 02:55:33;;;;;;;3.55;2.03;;;;;;;8.09;87.95;95895.44;5099281;28;20327;-73
2022/10/28 02:58:00;;;;;;;1.50;1.33;;;;;;;8.12;88.17;95892.97;5112783;28;20197;-73
2022/10/28 03:00:27;;;;;;;2.75;1.83;;;;;;;8.13;87.88;95897.28;5098140;28;20243;-73
2022/10/28 03:02:55;;;;;;;3.75;1.90;;;;;;;8.07;87.33;95892.19;5103991;28;20259;-73
2022/10/28 03:05:22;;;;;;;2.80;1.77;;;;;;;7.92;87.01;95889.63;5105332;28;20699;-73
2022/10/28 03:07:48;;;;;;;2.42;2.05;;;;;;;7.87;87.12;95884.25;5099682;28;20275;-73
2022/10/28 03:10:15;;;;;;;3.40;1.60;;;;;;;7.85;87.67;95890.72;5098253;28;20210;-73
2022/10/28 03:12:42;;;;;;;4.70;1.90;;;;;;;7.82;87.91;95885.88;5112270;28;20267;-73
2022/10/28 03:15:09;;;;;;;3.30;1.52;;;;;;;7.77;88.15;95871.63;5097770;28;20206;-73
2022/10/28 03:17:36;;;;;;;2.70;1.70;;;;;;;7.73;87.95;95887.56;5103168;28;20197;-73
2022/10/28 03:20:05;;;;;;;2.63;1.60;;;;;;;7.66;88.34;95889.75;5107095;28;20602;-73
2022/10/28 03:22:32;;;;;;;4.30;2.67;;;;;;;7.64;88.74;95888.44;5111192;28;20198;-73
2022/10/28 03:24:58;;;;;;;2.65;1.70;;;;;;;7.65;89.15;95888.16;5108487;28;20627;-72
2022/10/28 03:27:25;;;;;;;3.85;1.67;;;;;;;7.50;89.38;95890.94;5105284;28;20258;-73
2022/10/28 03:29:52;;;;;;;2.63;1.55;;;;;;;7.43;90.02;95893.09;5111415;28;20545;-73
2022/10/28 03:32:19;;;;;;;2.63;1.77;;;;;;;7.42;90.53;95892.28;5111224;28;20262;-73
2022/10/28 03:34:46;;;;;;;11.38;3.10;;;;;;;7.51;89.99;95895.25;5106933;28;20237;-71
2022/10/28 03:37:14;;;;;;;8.98;3.53;;;;;;;7.57;90.15;95888.72;5100942;28;20656;-72
2022/10/28 03:39:41;;;;;;;3.58;2.10;;;;;;;7.67;89.59;95899.44;5098299;28;20689;-72
2022/10/28 03:42:07;;;;;;;6.60;2.10;;;;;;;7.72;89.36;95896.75;5101054;28;20700;-72
2022/10/28 03:44:34;;;;;;;3.15;2.20;;;;;;;7.75;88.78;95895.38;5095075;28;20246;-71
2022/10/28 03:47:01;;;;;;;3.65;2.30;;;;;;;7.73;88.55;95903.75;5100385;28;20295;-71
2022/10/28 03:49:30;;;;;;;6.22;2.45;;;;;;;7.65;88.87;95906.22;5104802;28;20202;-70
2022/10/28 03:51:57;;;;;;;3.47;1.67;;;;;;;7.53;88.44;95901.13;5101416;28;20198;-72
2022/10/28 03:54:25;;;;;;;3.80;2.15;;;;;;;7.55;89.04;95896.28;5097471;28;20206;-71
2022/10/28 03:56:51;;;;;;;5.43;2.03;;;;;;;7.54;89.61;95889.28;5099404;28;20251;-71
2022/10/28 03:59:18;;;;;;;3.53;2.05;;;;;;;7.60;89.75;95896.28;5105090;28;20268;-71
2022/10/28 04:01:45;;;;;;;6.43;2.00;;;;;;;7.57;89.93;95899.50;5102488;28;20255;-72
2022/10/28 04:04:12;;;;;;;4.05;2.25;;;;;;;7.52;89.78;95896.06;5097749;28;20608;-73
2022/10/28 04:06:38;;;;;;;2.75;2.20;;;;;;;7.49;89.73;95898.22;5099213;28;20226;-73
2022/10/28 04:09:05;;;;;;;4.50;2.80;;;;;;;7.36;89.51;95901.50;5103170;28;20425;-74
2022/10/28 04:11:33;;;;;;;5.68;2.60;;;;;;;7.29;90.44;95902.84;5103045;28;20679;-76
2022/10/28 04:14:00;;;;;;;3.63;2.13;;;;;;;7.27;90.78;95905.81;5091909;28;20259;-73
2022/10/28 04:16:27;;;;;;;3.75;2.33;;;;;;;7.14;91.52;95904.53;5104013;28;20193;-73
2022/10/28 04:18:54;;;;;;;2.65;1.88;;;;;;;7.32;91.03;95902.31;5110638;28;20247;-74
2022/10/28 04:21:20;;;;;;;7.13;4.28;;;;;;;7.37;90.37;95907.69;5097717;28;20239;-72
2022/10/28 04:23:47;;;;;;;7.07;4.32;;;;;;;7.33;90.00;95914.72;5089874;28;20235;-72
2022/10/28 04:26:14;;;;;;;9.13;4.32;;;;;;;7.34;90.09;95910.94;5103579;28;20229;-74
2022/10/28 04:28:42;;;;;;;8.90;4.25;;;;;;;7.37;89.55;95905.00;5103701;28;20205;-72
2022/10/28 04:31:11;;;;;;;11.45;4.57;;;;;;;7.33;89.72;95907.44;5103002;28;20727;-74
2022/10/28 04:33:37;;;;;;;2.47;2.05;;;;;;;7.22;90.33;95911.25;5103460;28;20213;-74
2022/10/28 04:36:04;;;;;;;9.95;5.13;;;;;;;7.14;91.52;95904.53;5103684;28;20202;-73
2022/10/28 04:38:31;;;;;;;6.47;3.25;;;;;;;7.05;92.23;95908.06;5110300;28;20209;-73
2022/10/28 04:40:58;;;;;;;5.43;2.95;;;;;;;7.10;91.68;95906.19;5109529;28;20310;-73
2022/10/28 04:43:24;;;;;;;9.45;2.40;;;;;;;7.10;91.78;95898.09;5090460;28;20259;-73
2022/10/28 04:45:53;;;;;;;4.65;2.95;;;;;;;7.06;92.74;95888.94;5104236;28;20241;-73
2022/10/28 04:48:20;;;;;;;4.35;2.17;;;;;;;7.05;92.84;95886.50;5098268;28;20613;-73
2022/10/28 04:50:47;;;;;;;13.27;3.08;;;;;;;7.00;92.32;95898.09;5097051;28;20240;-74
2022/10/28 04:53:13;;;;;;;11.77;2.33;;;;;;;6.99;93.08;95907.25;5101825;28;20202;-73
2022/10/28 04:55:40;;;;;;;9.63;2.72;;;;;;;7.04;93.40;95896.47;5103899;28;20238;-73
2022/10/28 04:58:07;;;;;;;5.22;2.38;;;;;;;7.05;93.52;95898.09;5089793;28;20263;-73
2022/10/28 05:00:33;;;;;;;4.25;2.85;;;;;;;7.09;93.38;95906.44;5105132;28;20709;-74
2022/10/28 05:03:03;;;;;;;9.18;3.10;;;;;;;7.17;93.08;95905.88;5110485;28;20202;-73
2022/10/28 05:05:29;;;;;;;11.68;5.32;;;;;;;7.21;92.96;95912.34;5108393;28;20296;-74
2022/10/28 05:07:56;;;;;;;10.25;5.50;;;;;;;7.26;92.75;95911.50;5099079;28;20198;-73
2022/10/28 05:10:23;;;;;;;12.40;5.18;;;;;;;7.39;92.82;95906.31;5108928;28;20202;-73
2022/10/28 05:12:50;;;;;;;9.95;6.00;;;;;;;7.54;92.40;95901.94;5099275;28;20652;-73
2022/10/28 05:15:17;;;;;;;9.93;6.13;;;;;;;7.70;91.91;95900.78;5108100;28;20250;-74
2022/10/28 05:17:44;;;;;;;11.80;6.25;;;;;;;7.98;91.52;95905.50;5099764;28;20598;-74
2022/10/28 05:20:14;;;;;;;10.98;5.78;;;;;;;8.10;90.04;95911.34;5096824;28;20202;-73
2022/10/28 05:22:46;;;;;;;12.13;6.85;;;;;;;8.48;89.85;95908.94;5109336;28;20652;-74
2022/10/28 05:25:13;;;;;;;7.63;3.08;;;;;;;9.07;88.57;95911.38;5110285;28;20205;-74
2022/10/28 05:27:40;;;;;;;6.25;3.38;;;;;;;9.97;85.68;95908.66;5099442;28;20234;-74
2022/10/28 05:30:08;;;;;;;7.53;4.95;;;;;;;10.67;81.18;95910.59;5103706;28;20225;-74
2022/10/28 05:32:35;;;;;;;10.70;3.97;;;;;;;10.95;79.12;95906.06;5102855;28;20194;-74
2022/10/28 05:35:02;;;;;;;20.15;6.60;;;;;;;11.16;77.75;95904.59;5100798;28;20202;-74
2022/10/28 05:37:30;;;;;;;7.28;4.10;;;;;;;11.83;75.61;95904.94;5113438;28;20263;-75
2022/10/28 05:39:57;;;;;;;10.18;3.67;;;;;;;12.60;73.22;95902.06;5113397;28;20202;-74
2022/10/28 05:42:26;;;;;;;19.38;3.45;;;;;;;13.65;68.78;95901.56;5113307;28;20225;-75
2022/10/28 05:44:53;;;;;;;11.40;4.13;;;;;;;14.31;65.88;95905.06;5112493;28;20221;-75
2022/10/28 05:47:20;;;;;;;16.48;5.22;;;;;;;15.04;62.54;95900.53;5113199;28;20541;-75
2022/10/28 05:49:46;;;;;;;13.57;5.75;;;;;;;15.54;60.86;95896.03;5100609;28;20213;-73
2022/10/28 05:52:13;;;;;;;7.85;3.80;;;;;;;15.74;60.78;95901.91;5113613;28;20749;-73
2022/10/28 05:54:41;;;;;;;8.77;3.75;;;;;;;15.47;61.61;95909.41;5106736;28;20588;-73
2022/10/28 05:57:08;;;;;;;8.27;3.55;;;;;;;16.04;59.31;95895.31;5107104;28;20197;-73
2022/10/28 05:59:35;;;;;;;8.93;4.22;;;;;;;16.44;57.64;95903.09;5113665;28;20371;-73
2022/10/28 06:02:02;;;;;;;10.23;3.55;;;;;;;16.64;56.18;95902.34;5100198;28;20207;-74
2022/10/28 06:04:29;;;;;;;22.42;4.53;;;;;;;16.32;57.31;95912.84;5114067;28;20247;-74
2022/10/28 06:06:56;;;;;;;24.77;7.25;;;;;;;16.84;56.08;95903.44;5112342;28;20711;-74
2022/10/28 06:09:23;;;;;;;12.20;6.47;;;;;;;16.76;55.74;95902.38;5101149;28;20198;-74
2022/10/28 06:11:51;;;;;;;13.98;6.28;;;;;;;16.32;56.23;95906.56;5100204;28;20275;-75
2022/10/28 06:14:18;;;;;;;9.23;4.25;;;;;;;16.65;56.21;95920.34;5105586;28;20247;-74
2022/10/28 06:16:46;;;;;;;6.80;4.28;;;;;;;16.12;57.10;95919.09;5094297;28;20202;-74
2022/10/28 06:19:12;;;;;;;5.68;3.47;;;;;;;16.41;57.21;95926.44;5112409;28;20202;-73
2022/10/28 06:21:39;;;;;;;9.02;4.30;;;;;;;16.84;55.56;95925.34;5112369;28;20251;-73
2022/10/28 06:24:07;;;;;;;9.07;3.45;;;;;;;17.04;54.52;95928.06;5104149;28;20198;-73
2022/10/28 06:26:34;;;;;;;10.90;4.30;;;;;;;16.87;55.59;95930.94;5108370;28;20240;-74
2022/10/28 06:29:02;;;;;;;14.52;5.55;;;;;;;16.85;55.16;95935.94;5112360;28;20254;-74
2022/10/28 06:31:28;;;;;;;5.78;3.53;;;;;;;16.11;56.90;95939.38;5100227;28;20195;-74
2022/10/28 06:33:57;;;;;;;12.65;6.20;;;;;;;15.79;58.08;95931.81;5102666;28;20260;-75
2022/10/28 06:36:24;;;;;;;11.50;6.68;;;;;;;14.92;58.99;95942.13;5108269;28;20205;-74
2022/10/28 06:38:53;;;;;;;7.47;3.95;;;;;;;14.78;60.87;95946.94;5112761;28;20205;-74
2022/10/28 06:41:19;;;;;;;11.45;4.20;;;;;;;14.80;60.92;95940.03;5109599;28;20219;-75
2022/10/28 06:43:53;;;;;;;6.90;3.75;;;;;;;14.40;61.75;95938.59;5102157;28;20213;-74
2022/10/28 06:46:22;;;;;;;7.45;4.10;;;;;;;14.17;62.71;95943.34;5112137;28;20732;-73
2022/10/28 06:48:49;;;;;;;7.97;3.15;;;;;;;13.45;64.48;95951.91;5112347;28;20198;-74
2022/10/28 06:51:16;;;;;;;7.57;4.22;;;;;;;13.47;65.41;95946.97;5099097;28;20201;-74
2022/10/28 06:53:43;;;;;;;7.13;4.32;;;;;;;12.98;66.69;95945.22;5112304;28;20202;-75
2022/10/28 06:56:10;;;;;;;7.65;3.22;;;;;;;12.84;67.42;95949.94;5092582;28;20272;-74
2022/10/28 06:58:37;;;;;;;10.98;4.07;;;;;;;12.48;68.91;95948.03;5104637;28;20728;-73
2022/10/28 07:01:06;;;;;;;6.95;3.85;;;;;;;12.09;70.42;95952.16;5111971;28;20193;-75
2022/10/28 07:03:34;;;;;;;8.07;4.22;;;;;;;12.16;70.06;95940.09;5098467;28;20799;-74
2022/10/28 07:06:01;;;;;;;8.05;4.68;;;;;;;12.30;70.14;95946.28;5098524;28;20197;-75
2022/10/28 07:08:28;;;;;;;15.18;7.18;;;;;;;12.56;68.88;95941.88;5111940;28;20202;-75
2022/10/28 07:10:56;;;;;;;10.27;5.43;;;;;;;12.71;68.66;95946.94;5112002;28;20197;-74
2022/10/28 07:13:23;;;;;;;15.35;6.53;;;;;;;12.28;69.53;95948.50;5112217;28;20278;-74
2022/10/28 07:15:52;;;;;;;9.63;4.20;;;;;;;12.16;70.19;95948.22;5110769;28;20198;-74
2022/10/28 07:18:19;;;;;;;5.45;3.72;;;;;;;12.39;69.33;95950.69;5111171;28;20208;-75
2022/10/28 07:20:47;;;;;;;11.13;3.83;;;;;;;12.64;68.52;95949.28;5091842;28;20203;-75
2022/10/28 07:23:13;;;;;;;5.45;3.50;;;;;;;12.80;67.70;95950.53;5092898;28;20202;-74
2022/10/28 07:25:40;;;;;;;8.90;4.78;;;;;;;12.92;67.56;95949.19;5111913;28;20227;-74
2022/10/28 07:28:08;;;;;;;8.07;4.70;;;;;;;12.87;68.09;95949.28;5111273;28;20328;-74
2022/10/28 07:30:34;;;;;;;10.27;4.35;;;;;;;13.15;67.25;95950.78;5103188;28;20307;-75
2022/10/28 07:33:02;;;;;;;9.60;3.25;;;;;;;13.31;66.82;95948.47;5092936;28;20202;-74
2022/10/28 07:35:30;;;;;;;7.57;3.92;;;;;;;13.07;66.71;95949.59;5103144;28;20275;-75
2022/10/28 07:37:58;;;;;;;9.15;3.50;;;;;;;13.00;66.56;95942.97;5105273;28;20609;-74
2022/10/28 07:40:26;;;;;;;4.45;2.40;;;;;;;12.86;67.00;95950.41;5110183;28;20229;-74
2022/10/28 07:42:52;;;;;;;3.45;2.38;;;;;;;12.91;67.12;95944.84;5110429;28;20208;-74
2022/10/28 07:45:20;;;;;;;6.68;3.53;;;;;;;12.77;67.14;95944.91;5110335;28;20237;-75
2022/10/28 07:47:46;;;;;;;8.13;3.15;;;;;;;12.75;67.12;95945.22;5110719;28;20205;-75
2022/10/28 07:50:13;;;;;;;4.25;2.55;;;;;;;12.75;67.77;95947.94;5111015;28;20648;-75
2022/10/28 07:52:40;;;;;;;9.10;2.67;;;;;;;12.98;66.65;95945.22;5111336;28;20617;-74
2022/10/28 07:55:09;;;;;;;7.90;4.55;;;;;;;13.00;66.95;95937.53;5110187;28;20216;-74
2022/10/28 07:57:36;;;;;;;4.75;3.10;;;;;;;13.16;66.13;95941.50;5093122;28;20198;-75
2022/10/28 08:00:05;;;;;;;6.65;3.28;;;;;;;13.26;66.29;95941.25;5101949;28;20202;-75
2022/10/28 08:02:32;;;;;;;9.00;3.10;;;;;;;13.56;65.52;95923.28;5097536;28;20202;-73
2022/10/28 08:05:00;;;;;;;6.60;2.97;;;;;;;13.81;64.36;95935.38;5099763;28;20259;-76
2022/10/28 08:07:27;;;;;;;12.40;5.80;;;;;;;13.82;64.16;95942.44;5104730;28;20221;-75
2022/10/28 08:09:54;;;;;;;6.03;3.80;;;;;;;14.03;64.17;95938.03;5102792;28;20270;-74
2022/10/28 08:12:22;;;;;;;5.70;3.30;;;;;;;14.19;63.03;95931.03;5097263;28;20717;-75
2022/10/28 08:14:49;;;;;;;13.43;5.90;;;;;;;14.02;63.20;95941.88;5099468;28;20221;-76
2022/10/28 08:17:16;;;;;;;12.10;5.32;;;;;;;13.93;63.46;95927.44;5109578;28;20285;-75
2022/10/28 08:19:43;;;;;;;10.15;5.85;;;;;;;13.95;63.57;95938.78;5111014;28;20198;-74
2022/10/28 08:22:10;;;;;;;17.67;6.65;;;;;;;13.73;64.24;95949.78;5105463;28;20198;-74
2022/10/28 08:24:36;;;;;;;9.52;6.22;;;;;;;13.72;64.27;95942.75;5102857;28;20629;-73
2022/10/28 08:27:03;;;;;;;5.65;3.78;;;;;;;13.90;63.93;95938.97;5110290;28;20278;-74
2022/10/28 08:29:31;;;;;;;7.82;4.97;;;;;;;14.32;62.55;95933.91;5098034;28;20259;-74
2022/10/28 08:31:58;;;;;;;12.07;5.75;;;;;;;14.68;61.48;95931.72;5109391;28;20915;-74
2022/10/28 08:34:28;;;;;;;9.95;6.28;;;;;;;14.71;61.41;95931.06;5111239;28;20247;-75
2022/10/28 08:36:55;;;;;;;8.18;3.78;;;;;;;14.43;61.89;95935.25;5096967;28;20674;-75
2022/10/28 08:39:21;;;;;;;9.70;5.15;;;;;;;14.48;61.66;95926.91;5110542;28;20413;-75
2022/10/28 08:41:55;;;;;;;12.23;3.83;;;;;;;14.70;61.90;95934.94;5096362;28;20218;-72
2022/10/28 08:44:43;;;;;;;7.78;4.20;;;;;;;14.92;61.27;95934.75;5096244;28;20194;-75
2022/10/28 08:47:21;;;;;;;12.75;5.20;;;;;;;15.17;60.06;95933.09;5100668;28;20274;-74
2022/10/28 08:49:55;;;;;;;8.55;4.05;;;;;;;15.20;60.03;95931.63;5097745;28;20198;-75
2022/10/28 08:52:28;;;;;;;9.63;4.10;;;;;;;14.95;60.46;95930.56;5096815;28;20624;-74
2022/10/28 08:55:00;;;;;;;15.65;8.25;;;;;;;15.01;60.28;95920.28;5101472;28;20267;-73
2022/10/28 08:57:34;;;;;;;8.80;4.90;;;;;;;15.12;60.04;95921.56;5106728;28;20610;-74
2022/10/28 09:00:21;;;;;;;14.07;7.35;;;;;;;15.23;60.11;95920.06;5109865;28;20574;-76
2022/10/28 09:02:56;;;;;;;8.35;5.00;;;;;;;15.32;59.36;95918.13;5096706;28;20265;-73
2022/10/28 09:05:24;;;;;;;9.50;4.80;;;;;;;15.09;60.26;95914.00;5109937;28;20205;-73
2022/10/28 09:07:52;;;;;;;11.25;5.65;;;;;;;15.14;59.66;95911.13;5113937;28;20313;-75
2022/10/28 09:10:34;;;;;;;13.02;4.85;;;;;;;15.17;59.69;95918.66;5114720;28;20257;-75
2022/10/28 09:13:11;;;;;;;10.52;5.22;;;;;;;15.39;59.42;95912.16;5114666;28;20318;-74
2022/10/28 09:15:45;;;;;;;7.72;5.13;;;;;;;15.78;58.69;95905.59;5094666;28;20198;-74
2022/10/28 09:18:18;;;;;;;9.43;5.25;;;;;;;16.04;58.17;95894.53;5107780;28;20200;-75
2022/10/28 09:20:52;;;;;;;13.57;7.32;;;;;;;16.26;57.17;95897.75;5114514;28;20229;-74
2022/10/28 09:23:23;;;;;;;10.40;5.93;;;;;;;16.25;56.89;95889.91;5100577;28;20190;-74
2022/10/28 09:26:07;;;;;;;10.70;6.40;;;;;;;16.53;56.20;95895.66;5113842;28;20205;-74
2022/10/28 09:28:51;;;;;;;9.63;6.03;;;;;;;16.51;56.92;95884.22;5095101;28;20581;-74
2022/10/28 09:31:29;;;;;;;12.35;5.30;;;;;;;16.49;56.57;95878.28;5107990;28;20205;-74
2022/10/28 09:34:10;;;;;;;7.32;4.47;;;;;;;16.48;56.12;95876.69;5114099;28;20251;-74
2022/10/28 09:36:43;;;;;;;8.30;4.35;;;;;;;16.22;57.07;95874.16;5114197;28;20193;-74
2022/10/28 09:39:16;;;;;;;9.55;4.63;;;;;;;16.42;56.36;95878.00;5114249;28;20197;-74
2022/10/28 09:41:45;;;;;;;7.15;3.75;;;;;;;16.66;56.40;95867.25;5100355;28;20287;-74
2022/10/28 09:44:18;;;;;;;6.38;4.03;;;;;;;16.84;55.55;95868.66;5100202;28;20746;-76
2022/10/28 09:46:49;;;;;;;8.45;5.47;;;;;;;16.79;55.50;95862.59;5113440;28;20712;-73
2022/10/28 09:49:20;;;;;;;10.23;6.13;;;;;;;16.75;55.70;95854.25;5100082;28;20206;-73
2022/10/28 09:51:52;;;;;;;7.97;4.30;;;;;;;16.86;54.96;95849.16;5114328;28;20205;-73
2022/10/28 09:54:32;;;;;;;9.05;4.57;;;;;;;16.74;55.39;95844.44;5095750;28;20194;-74
2022/10/28 09:56:59;;;;;;;9.20;4.60;;;;;;;16.64;56.10;95842.13;5093338;28;20190;-74
2022/10/28 09:59:25;;;;;;;9.23;4.10;;;;;;;16.88;54.91;95836.75;5113061;28;20764;-73
2022/10/28 10:01:54;;;;;;;7.75;4.25;;;;;;;17.12;54.30;95835.19;5113107;28;20228;-75
2022/10/28 10:04:23;;;;;;;8.18;4.45;;;;;;;17.01;54.77;95835.63;5106440;28;20201;-75
2022/10/28 10:06:53;;;;;;;8.07;5.03;;;;;;;17.09;55.22;95841.34;5092745;28;20262;-78
2022/10/28 10:09:24;;;;;;;8.60;4.82;;;;;;;17.17;54.59;95832.25;5106010;28;20279;-74
2022/10/28 10:11:54;;;;;;;11.38;4.97;;;;;;;17.22;54.68;95835.53;5094795;28;20194;-73
2022/10/28 10:14:28;;;;;;;6.43;3.80;;;;;;;17.37;52.94;95831.34;5104845;28;20559;-74
2022/10/28 10:16:59;;;;;;;9.27;3.78;;;;;;;17.46;53.35;95829.31;5108927;28;20629;-74
2022/10/28 10:19:26;;;;;;;10.55;3.72;;;;;;;17.33;53.35;95831.25;5113590;28;20263;-74
2022/10/28 10:21:54;;;;;;;6.07;3.83;;;;;;;17.56;53.08;95817.91;5096029;28;20632;-74
2022/10/28 10:24:31;;;;;;;6.03;3.90;;;;;;;17.65;52.50;95810.38;5104057;28;20288;-75
2022/10/28 10:27:02;;;;;;;5.28;3.22;;;;;;;17.79;52.51;95814.69;5107051;28;20251;-73
2022/10/28 10:29:31;;;;;;;5.78;3.40;;;;;;;17.73;52.41;95811.41;5106453;28;20279;-74
2022/10/28 10:32:09;;;;;;;6.10;2.85;;;;;;;17.75;52.10;95798.97;5098965;28;20205;-74
2022/10/28 10:34:36;;;;;;;6.10;3.03;;;;;;;17.92;51.71;95803.38;5113068;28;20609;-74
2022/10/28 10:37:03;;;;;;;5.95;3.28;;;;;;;17.97;50.93;95805.09;5103965;28;20243;-74
2022/10/28 10:39:35;;;;;;;5.38;2.97;;;;;;;17.95;51.61;95807.38;5107847;28;20201;-74
2022/10/28 10:42:02;;;;;;;5.53;3.35;;;;;;;18.01;52.15;95800.53;5103540;28;20194;-72
2022/10/28 10:44:32;;;;;;;5.40;3.70;;;;;;;18.08;51.41;95790.53;5106088;28;20289;-74
2022/10/28 10:47:23;;;;;;;5.40;3.17;;;;;;;18.41;50.98;95787.59;5102027;28;20237;-73
2022/10/28 10:49:50;;;;;;;5.68;3.05;;;;;;;18.18;50.62;95789.25;5099480;28;20197;-74
2022/10/28 10:52:24;;;;;;;5.50;3.10;;;;;;;18.29;50.57;95779.41;5112603;28;20282;-74
2022/10/28 10:55:01;;;;;;;3.05;2.40;;;;;;;18.31;50.02;95777.09;5104045;28;20194;-72
2022/10/28 10:57:28;;;;;;;4.65;2.70;;;;;;;18.31;50.27;95788.06;5094701;28;20247;-74
2022/10/28 10:59:57;;;;;;;4.88;2.63;;;;;;;18.43;49.24;95771.59;5102393;28;20198;-74
2022/10/28 11:02:28;;;;;;;5.10;2.55;;;;;;;18.48;49.09;95774.06;5108784;28;20221;-72
2022/10/28 11:04:59;;;;;;;5.45;2.50;;;;;;;18.55;48.76;95769.94;5112382;28;20608;-72
2022/10/28 11:07:27;;;;;;;5.32;2.85;;;;;;;18.61;48.48;95774.03;5111870;28;20194;-74
2022/10/28 11:09:55;;;;;;;2.95;2.40;;;;;;;18.47;48.12;95769.72;5100067;28;20191;-74
2022/10/28 11:12:28;;;;;;;3.08;2.15;;;;;;;18.67;48.21;95767.16;5111088;28;20281;-75
2022/10/28 11:14:57;;;;;;;3.65;2.38;;;;;;;18.91;46.51;95772.50;5112102;28;20262;-75
2022/10/28 11:17:27;;;;;;;5.60;2.35;;;;;;;18.95;45.83;95765.16;5105386;28;20202;-74
2022/10/28 11:19:57;;;;;;;2.92;2.20;;;;;;;18.80;45.91;95763.19;5106107;28;20214;-74
2022/10/28 11:22:42;;;;;;;3.08;2.05;;;;;;;19.00;43.88;95751.16;5110997;28;20324;-76
2022/10/28 11:25:35;;;;;;;4.72;2.10;;;;;;;18.99;44.11;95755.06;5112079;28;20201;-74
2022/10/28 11:28:36;;;;;;;4.00;1.90;;;;;;;19.06;42.96;95757.19;5111600;28;20256;-74
2022/10/28 11:31:22;;;;;;;2.97;2.00;;;;;;;19.11;44.17;95749.50;5111213;28;20744;-74
2022/10/28 11:34:06;;;;;;;3.75;2.40;;;;;;;19.16;44.00;95740.97;5098936;28;20257;-74
2022/10/28 11:36:40;;;;;;;2.58;1.70;;;;;;;19.07;44.06;95743.09;5098251;28;20197;-75
2022/10/28 11:39:19;;;;;;;3.65;1.98;;;;;;;19.22;41.94;95749.75;5099516;28;20189;-75
2022/10/28 11:42:04;;;;;;;3.08;2.00;;;;;;;19.23;42.48;95750.53;5098368;28;20198;-73
2022/10/28 11:44:43;;;;;;;3.20;1.98;;;;;;;19.20;43.33;95740.25;5111310;28;20719;-76
2022/10/28 11:47:23;;;;;;;3.97;2.33;;;;;;;19.10;44.58;95739.66;5100393;28;20190;-74
2022/10/28 11:50:18;;;;;;;3.78;2.13;;;;;;;19.26;44.02;95733.34;5098683;28;20221;-74
2022/10/28 11:53:16;;;;;;;3.33;2.15;;;;;;;19.30;43.01;95728.72;5089660;28;20266;-74